»·PEaware :: NKS21 KRNO-KPDX

NKS21 :: KRNO-KPDX

FLIGHT INFORMATION

Flight Status: Arrived
Operator:
Spirit Airlines
More flights by this operator :: More flights under this callsign
Pilot: Ben F. (13029)
Aircraft: AIRBUS A320
(A320)
More flights by this aircraft type
Origin: KRNO Reno/Tahoe Intl
United States
Destination: KPDX Portland Intl
United States
More flights between these airports :: More routes between these airports
Route: VISTA2 FMG J92 LMT MOXEE PORTL OCITY1
File this flight plan on PilotEdge
Remarks: PBN / A1B1C1D1O1S1 DOF / 180713 REG / N320SB EET / KZSE0019 OPR / NKS PER / C RMK / TCAS SIMBRIEF
Altitude:
(Current/Filed)
36,000ft
Speed:
(Current/Filed)
446kts
Departed: 12-Jul-18 07:49 PM
Arrived: 12-Jul-18 08:56 PM
Distance/Time
Traveled:
386nm/1:07
Distance/Time
To Go:
Arrived

Flight Plot

Page will automatically refresh every two minutes.

Flight plan parsing failed; only flown route is shown


Map Options




Map Legend


Flown Route
Filed Route
Departure Airport
Arrival Airport
Navaid (VOR, NDB)
Fix

Horizontal Profiles

Position Reports

Time Latitude Longitude Heading Altitude Ground
Speed
12-Jul-18 18:46 39.504851 -119.772351 270 4413ft 0kts
12-Jul-18 18:47 39.504851 -119.772351 270 4413ft 0kts
12-Jul-18 18:48 39.504851 -119.772351 270 4413ft 0kts
12-Jul-18 18:49 39.504851 -119.772351 270 4413ft 0kts
12-Jul-18 18:50 39.504851 -119.772351 270 4413ft 0kts
12-Jul-18 18:51 39.504851 -119.772351 270 4413ft 0kts
12-Jul-18 18:52 39.504851 -119.772351 270 4413ft 0kts
12-Jul-18 18:53 39.504851 -119.772351 270 4413ft 0kts
12-Jul-18 18:54 39.504851 -119.772351 270 4413ft 0kts
12-Jul-18 18:55 39.504851 -119.772351 270 4413ft 0kts
12-Jul-18 18:56 39.504851 -119.772351 270 4412ft 0kts
12-Jul-18 18:57 39.504851 -119.772351 270 4412ft 0kts
12-Jul-18 18:58 39.504851 -119.772351 270 4412ft 0kts
12-Jul-18 18:59 39.504851 -119.772351 270 4412ft 0kts
12-Jul-18 19:00 39.504851 -119.772351 270 4412ft 0kts
12-Jul-18 19:01 39.504851 -119.772351 270 4412ft 0kts
12-Jul-18 19:02 39.504851 -119.772351 270 4412ft 0kts
12-Jul-18 19:03 39.504851 -119.772351 270 4412ft 0kts
12-Jul-18 19:06 39.504851 -119.772351 0 4412ft 0kts
12-Jul-18 19:07 39.504851 -119.772351 270 4412ft 0kts
12-Jul-18 19:08 39.504851 -119.772351 270 4412ft 0kts
12-Jul-18 19:09 39.504852 -119.772467 270 4408ft 0kts
12-Jul-18 19:10 39.504851 -119.772351 270 4412ft 0kts
12-Jul-18 19:11 39.504851 -119.772351 270 4412ft 0kts
12-Jul-18 19:12 39.504851 -119.772351 270 4412ft 0kts
12-Jul-18 19:13 39.504851 -119.772351 270 4412ft 0kts
12-Jul-18 19:14 39.504851 -119.772351 270 4412ft 0kts
12-Jul-18 19:15 39.504851 -119.772351 270 4412ft 0kts
12-Jul-18 19:16 39.504851 -119.772351 270 4412ft 0kts
12-Jul-18 19:17 39.504851 -119.772351 270 4412ft 0kts
12-Jul-18 19:18 39.504851 -119.772351 270 4412ft 0kts
12-Jul-18 19:19 39.504852 -119.772467 270 4408ft 0kts
12-Jul-18 19:20 39.504851 -119.772351 270 4412ft 0kts
12-Jul-18 19:21 39.504851 -119.772351 270 4412ft 0kts
12-Jul-18 19:22 39.504851 -119.772351 270 4412ft 0kts
12-Jul-18 19:23 39.504851 -119.772351 270 4412ft 0kts
12-Jul-18 19:24 39.504851 -119.772351 270 4412ft 0kts
12-Jul-18 19:25 39.504851 -119.772351 270 4412ft 0kts
12-Jul-18 19:26 39.504851 -119.772351 270 4412ft 0kts
12-Jul-18 19:27 39.504851 -119.772351 270 4412ft 0kts
12-Jul-18 19:28 39.504851 -119.772351 270 4412ft 0kts
12-Jul-18 19:29 39.504851 -119.772351 270 4412ft 0kts
12-Jul-18 19:30 39.504851 -119.772351 270 4412ft 0kts
12-Jul-18 19:31 39.504851 -119.772351 270 4412ft 0kts
12-Jul-18 19:32 39.504851 -119.772351 270 4412ft 0kts
12-Jul-18 19:33 39.504851 -119.772351 270 4412ft 0kts
12-Jul-18 19:34 39.504851 -119.772351 270 4412ft 0kts
12-Jul-18 19:35 39.504851 -119.772351 270 4412ft 0kts
12-Jul-18 19:36 39.504851 -119.772351 270 4412ft 0kts
12-Jul-18 19:37 39.504851 -119.772351 270 4412ft 0kts
12-Jul-18 19:38 39.504851 -119.772351 270 4412ft 0kts
12-Jul-18 19:39 39.504851 -119.772351 270 4412ft 0kts
12-Jul-18 19:40 39.504851 -119.772351 270 4412ft 0kts
12-Jul-18 19:41 39.504851 -119.772351 270 4413ft 0kts
12-Jul-18 19:42 39.504867 -119.771687 239 4411ft 2kts
12-Jul-18 19:43 39.505165 -119.771493 178 4411ft 0kts
12-Jul-18 19:44 39.505164 -119.771493 178 4411ft 0kts
12-Jul-18 19:45 39.500940 -119.771505 179 4411ft 30kts
12-Jul-18 19:46 39.497349 -119.770478 89 4409ft 0kts
12-Jul-18 19:47 39.497348 -119.768071 90 4408ft 4kts
12-Jul-18 19:48 39.497322 -119.758801 89 4401ft 28kts
12-Jul-18 19:49 39.497114 -119.757478 150 4401ft 0kts
12-Jul-18 19:50 39.496238 -119.762442 270 4404ft 76kts
12-Jul-18 19:51 39.507057 -119.808743 345 5627ft 183kts
12-Jul-18 19:52 39.527309 -119.744155 101 8402ft 266kts
12-Jul-18 19:53 39.568426 -119.669896 355 10830ft 341kts
12-Jul-18 19:54 39.648319 -119.741777 327 14875ft 367kts
12-Jul-18 19:55 39.737626 -119.812142 328 17360ft 385kts
12-Jul-18 19:56 39.831597 -119.883828 328 19709ft 399kts
12-Jul-18 19:57 39.926951 -119.956625 328 21781ft 413kts
12-Jul-18 19:58 40.027162 -120.033378 328 23676ft 426kts
12-Jul-18 19:59 40.130087 -120.112427 328 25362ft 438kts
12-Jul-18 20:00 40.236116 -120.194150 328 26867ft 449kts
12-Jul-18 20:01 40.344928 -120.278395 328 28216ft 460kts
12-Jul-18 20:02 40.455726 -120.364514 328 29416ft 469kts
12-Jul-18 20:03 40.567550 -120.451770 328 30879ft 467kts
12-Jul-18 20:04 40.678361 -120.538577 328 32200ft 465kts
12-Jul-18 20:05 40.789070 -120.625641 328 33369ft 463kts
12-Jul-18 20:06 40.898166 -120.711878 328 34392ft 460kts
12-Jul-18 20:07 41.007041 -120.798162 327 35316ft 457kts
12-Jul-18 20:08 41.111463 -120.881240 326 36020ft 439kts
12-Jul-18 20:09 41.216258 -120.964836 326 36011ft 441kts
12-Jul-18 20:10 41.321282 -121.049030 326 36015ft 444kts
12-Jul-18 20:11 41.426648 -121.133820 326 36018ft 446kts
12-Jul-18 20:12 41.532390 -121.219231 326 36034ft 449kts
12-Jul-18 20:13 41.638979 -121.305677 326 36041ft 448kts
12-Jul-18 20:14 41.745300 -121.392240 326 36042ft 448kts
12-Jul-18 20:15 41.850977 -121.478615 326 36039ft 448kts
12-Jul-18 20:16 41.957079 -121.565679 326 36038ft 448kts
12-Jul-18 20:17 42.062310 -121.652368 325 36037ft 448kts
12-Jul-18 20:18 42.168946 -121.735311 336 36045ft 452kts
12-Jul-18 20:19 42.286783 -121.793926 336 36037ft 452kts
12-Jul-18 20:20 42.404492 -121.852760 337 36035ft 452kts
12-Jul-18 20:21 42.522101 -121.911738 336 36036ft 452kts
12-Jul-18 20:22 42.639360 -121.970778 336 36037ft 452kts
12-Jul-18 20:23 42.757186 -122.030342 337 36038ft 452kts
12-Jul-18 20:24 42.874087 -122.089680 337 36038ft 452kts
12-Jul-18 20:25 42.990377 -122.148924 336 35925ft 442kts
12-Jul-18 20:26 43.103880 -122.207027 335 35864ft 435kts
12-Jul-18 20:27 43.217095 -122.265095 335 35863ft 436kts
12-Jul-18 20:28 43.329670 -122.323175 335 35186ft 452kts
12-Jul-18 20:29 43.449604 -122.383951 337 33346ft 431kts
12-Jul-18 20:30 43.564889 -122.445033 336 29874ft 455kts
12-Jul-18 20:31 43.682365 -122.506560 336 27509ft 448kts
12-Jul-18 20:32 43.796977 -122.566665 336 25370ft 437kts
12-Jul-18 20:33 43.907675 -122.624936 336 23888ft 420kts
12-Jul-18 20:34 44.018375 -122.683585 336 23880ft 428kts
12-Jul-18 20:35 44.127946 -122.741593 338 22333ft 421kts
12-Jul-18 20:36 44.241746 -122.743790 1 21257ft 392kts
12-Jul-18 20:37 44.342321 -122.734188 1 20755ft 352kts
12-Jul-18 20:38 44.439659 -122.724608 1 19256ft 346kts
12-Jul-18 20:39 44.534299 -122.715226 1 17817ft 338kts
12-Jul-18 20:40 44.627948 -122.705884 2 16604ft 334kts
12-Jul-18 20:41 44.721196 -122.696640 2 15591ft 352kts
12-Jul-18 20:42 44.814583 -122.687150 2 14903ft 329kts
12-Jul-18 20:43 44.905705 -122.677955 2 13464ft 327kts
12-Jul-18 20:44 44.993328 -122.669079 2 11873ft 307kts
12-Jul-18 20:45 45.076537 -122.660637 2 10342ft 295kts
12-Jul-18 20:46 45.156161 -122.652546 2 9188ft 276kts
12-Jul-18 20:47 45.227942 -122.643396 19 8776ft 238kts
12-Jul-18 20:48 45.280082 -122.591118 34 7720ft 228kts
12-Jul-18 20:49 45.330441 -122.538400 34 6510ft 224kts
12-Jul-18 20:50 45.378865 -122.487958 34 5776ft 195kts
12-Jul-18 20:51 45.423083 -122.442283 34 4667ft 196kts
12-Jul-18 20:52 45.470574 -122.413764 349 3856ft 184kts
12-Jul-18 20:53 45.515840 -122.443765 315 2161ft 191kts
12-Jul-18 20:54 45.545985 -122.498508 304 1226ft 165kts
12-Jul-18 20:55 45.567649 -122.550930 299 530ft 147kts
12-Jul-18 20:56 45.585820 -122.597476 298 37ft 71kts
12-Jul-18 20:57 45.588517 -122.602186 337 37ft 7kts
12-Jul-18 20:58 45.589249 -122.600958 118 37ft 8kts
12-Jul-18 20:59 45.589397 -122.598963 42 37ft 4kts
12-Jul-18 21:00 45.589413 -122.598942 42 37ft 0kts

Navigation Log

Ident Type
Flight plan parsing failed, navigation log unavailable